Time;durP1;ratioP1;P1;durP2;ratioP2;P2;SDS_P1;SDS_P2;PMS_P1;PMS_P2;Temp;Humidity;BMP_temperature;BMP_pressure;BME280_temperature;BME280_humidity;BME280_pressure;Samples;Min_cycle;Max_cycle;Signal;HPM_P1;HPM_P2
2021/08/16 00:00:07;;;;;;;8.07;4.10;;;18.80;99.90;;;;;;5003463;28;20243;-62
2021/08/16 00:02:36;;;;;;;7.07;3.73;;;18.70;99.90;;;;;;5003003;28;20331;-62
2021/08/16 00:05:07;;;;;;;5.60;3.40;;;18.70;99.90;;;;;;5003332;28;20722;-63
2021/08/16 00:07:35;;;;;;;7.87;4.37;;;18.70;99.90;;;;;;5003178;28;20251;-63
2021/08/16 00:10:03;;;;;;;7.83;4.40;;;18.70;99.90;;;;;;5001931;28;20232;-63
2021/08/16 00:12:32;;;;;;;7.87;4.27;;;18.60;99.90;;;;;;5002850;28;20248;-62
2021/08/16 00:15:00;;;;;;;10.07;4.00;;;18.60;99.90;;;;;;5001621;28;20267;-64
2021/08/16 00:17:28;;;;;;;9.67;4.63;;;18.60;99.90;;;;;;5002707;28;20243;-63
2021/08/16 00:19:56;;;;;;;7.27;4.20;;;18.60;99.90;;;;;;5002671;28;20250;-62
2021/08/16 00:22:25;;;;;;;7.07;4.13;;;18.60;99.90;;;;;;5001424;28;20267;-63
2021/08/16 00:24:54;;;;;;;6.70;4.27;;;18.60;99.90;;;;;;5002409;28;20246;-62
2021/08/16 00:27:22;;;;;;;8.00;4.60;;;18.50;99.90;;;;;;5001986;28;21022;-62
2021/08/16 00:29:50;;;;;;;6.60;4.50;;;18.50;99.90;;;;;;5004968;28;20243;-63
2021/08/16 00:32:18;;;;;;;7.77;3.90;;;18.50;99.90;;;;;;4994172;28;20618;-62
2021/08/16 00:34:46;;;;;;;9.77;4.03;;;18.50;99.90;;;;;;4986299;28;20315;-62
2021/08/16 00:37:14;;;;;;;5.53;3.60;;;18.40;99.90;;;;;;4985952;28;20318;-62
2021/08/16 00:39:44;;;;;;;10.23;4.13;;;18.50;99.90;;;;;;4986331;28;20244;-62
2021/08/16 00:42:12;;;;;;;5.83;3.83;;;18.40;99.90;;;;;;4985955;28;20676;-63
2021/08/16 00:44:41;;;;;;;7.53;4.43;;;18.40;99.90;;;;;;4986056;28;20239;-62
2021/08/16 00:47:10;;;;;;;8.07;4.63;;;18.40;99.90;;;;;;4985847;28;20272;-63
2021/08/16 00:49:38;;;;;;;6.97;4.10;;;18.40;99.90;;;;;;4991156;28;20248;-63
2021/08/16 00:52:06;;;;;;;7.63;4.57;;;18.30;99.90;;;;;;5005392;28;20330;-64
2021/08/16 00:54:35;;;;;;;7.67;4.40;;;18.30;99.90;;;;;;4999822;28;20262;-63
2021/08/16 00:57:05;;;;;;;6.33;4.20;;;18.20;99.90;;;;;;5005658;28;20239;-62
2021/08/16 00:59:33;;;;;;;8.07;4.80;;;18.20;99.90;;;;;;5005595;28;20270;-62
2021/08/16 01:02:02;;;;;;;4.90;4.00;;;18.20;99.90;;;;;;5005027;28;20438;-62
2021/08/16 01:04:31;;;;;;;6.50;3.97;;;18.20;99.90;;;;;;5005368;28;20702;-63
2021/08/16 01:06:59;;;;;;;7.60;4.33;;;18.20;99.90;;;;;;5004661;28;20250;-62
2021/08/16 01:09:27;;;;;;;7.77;4.60;;;18.20;99.90;;;;;;5006418;28;20330;-62
2021/08/16 01:11:55;;;;;;;8.07;4.80;;;18.10;99.90;;;;;;5006522;28;20243;-64
2021/08/16 01:14:25;;;;;;;8.23;4.90;;;18.10;99.90;;;;;;5000015;28;20333;-63
2021/08/16 01:16:53;;;;;;;5.93;4.13;;;18.10;99.90;;;;;;5005707;28;20272;-62
2021/08/16 01:19:22;;;;;;;8.60;4.10;;;18.10;99.90;;;;;;5006485;28;20705;-63
2021/08/16 01:21:50;;;;;;;6.70;4.37;;;18.10;99.90;;;;;;5005537;28;20254;-63
2021/08/16 01:24:19;;;;;;;8.97;4.60;;;18.10;99.90;;;;;;5003974;28;20719;-62
2021/08/16 01:26:49;;;;;;;7.03;4.20;;;18.00;99.90;;;;;;5005963;28;20641;-62
2021/08/16 01:29:19;;;;;;;9.37;4.37;;;18.00;99.90;;;;;;5003510;28;20810;-63
2021/08/16 01:31:57;;;;;;;6.67;4.40;;;18.00;99.90;;;;;;5005816;28;20296;-63
2021/08/16 01:34:25;;;;;;;11.50;4.50;;;18.00;99.90;;;;;;5005762;28;20718;-63
2021/08/16 01:36:53;;;;;;;7.80;4.40;;;18.00;99.90;;;;;;5005910;28;20624;-63
2021/08/16 01:39:21;;;;;;;7.77;5.00;;;17.90;99.90;;;;;;5006292;28;20243;-62
2021/08/16 01:41:51;;;;;;;8.23;4.93;;;17.90;99.90;;;;;;5004856;28;20252;-63
2021/08/16 01:44:20;;;;;;;10.00;5.53;;;17.90;99.90;;;;;;5005363;28;20591;-63
2021/08/16 01:46:49;;;;;;;7.53;4.80;;;17.80;99.90;;;;;;5005443;28;20259;-62
2021/08/16 01:49:17;;;;;;;6.80;4.53;;;17.80;99.90;;;;;;5002739;28;20234;-62
2021/08/16 01:51:47;;;;;;;9.60;5.30;;;17.80;99.90;;;;;;5005527;28;20330;-63
2021/08/16 01:54:16;;;;;;;9.60;5.40;;;17.70;99.90;;;;;;5004969;28;20242;-62
2021/08/16 01:56:45;;;;;;;7.57;5.10;;;17.70;99.90;;;;;;5005456;28;20256;-62
2021/08/16 01:59:14;;;;;;;6.13;4.67;;;17.70;99.90;;;;;;5005785;28;20265;-63
2021/08/16 02:01:42;;;;;;;9.03;5.43;;;17.70;99.90;;;;;;5004744;28;20331;-63
2021/08/16 02:04:13;;;;;;;7.90;5.30;;;17.70;99.90;;;;;;5005927;28;20245;-62
2021/08/16 02:06:41;;;;;;;9.90;5.57;;;17.70;99.90;;;;;;5005105;28;20327;-62
2021/08/16 02:09:09;;;;;;;7.20;5.53;;;17.60;99.90;;;;;;5005410;28;20233;-63
2021/08/16 02:11:38;;;;;;;8.07;5.17;;;17.60;99.90;;;;;;5005345;28;20243;-62
2021/08/16 02:14:06;;;;;;;8.80;5.90;;;17.60;99.90;;;;;;5004784;28;20230;-63
2021/08/16 02:16:35;;;;;;;8.00;5.23;;;17.60;99.90;;;;;;5005323;28;20345;-62
2021/08/16 02:19:03;;;;;;;7.83;5.10;;;17.60;99.90;;;;;;5003320;28;20629;-62
2021/08/16 02:21:31;;;;;;;8.67;5.70;;;17.60;99.90;;;;;;5004884;28;20332;-63
2021/08/16 02:23:59;;;;;;;11.27;5.23;;;17.60;99.90;;;;;;5005223;28;20238;-63
2021/08/16 02:26:28;;;;;;;7.80;4.73;;;17.60;99.90;;;;;;5005324;28;20247;-62
2021/08/16 02:28:56;;;;;;;7.40;5.23;;;17.50;99.90;;;;;;5005030;28;20598;-62
2021/08/16 02:31:24;;;;;;;7.43;5.20;;;17.60;99.90;;;;;;5005053;28;20323;-62
2021/08/16 02:33:54;;;;;;;8.23;5.53;;;17.50;99.90;;;;;;5004115;28;20247;-63
2021/08/16 02:36:22;;;;;;;9.80;5.50;;;17.50;99.90;;;;;;5005453;28;20266;-63
2021/08/16 02:38:50;;;;;;;9.00;5.30;;;17.50;99.90;;;;;;5004921;28;20685;-62
2021/08/16 02:41:18;;;;;;;6.43;5.17;;;17.50;99.90;;;;;;5004990;28;20627;-62
2021/08/16 02:43:46;;;;;;;9.83;5.63;;;17.50;99.90;;;;;;5004080;28;20248;-62
2021/08/16 02:46:14;;;;;;;8.20;5.33;;;17.60;99.90;;;;;;5004361;28;20243;-61
2021/08/16 02:48:43;;;;;;;8.43;5.60;;;17.50;99.90;;;;;;5004623;28;20297;-63
2021/08/16 02:51:12;;;;;;;11.03;5.63;;;17.50;99.90;;;;;;5004462;28;20813;-63
2021/08/16 02:53:41;;;;;;;9.37;5.80;;;17.50;99.90;;;;;;5003162;28;20345;-63
2021/08/16 02:56:09;;;;;;;9.60;5.90;;;17.50;99.90;;;;;;5004749;28;20263;-62
2021/08/16 02:58:37;;;;;;;5.70;4.90;;;17.50;99.90;;;;;;5003922;28;20235;-62
2021/08/16 03:01:05;;;;;;;8.20;5.87;;;17.50;99.90;;;;;;5004629;28;20920;-63
2021/08/16 03:03:33;;;;;;;9.00;5.83;;;17.50;99.90;;;;;;5004186;28;20238;-63
2021/08/16 03:06:02;;;;;;;10.63;6.23;;;17.50;99.90;;;;;;5004967;28;20243;-62
2021/08/16 03:08:34;;;;;;;7.27;5.43;;;17.50;99.90;;;;;;5005182;28;20235;-63
2021/08/16 03:11:02;;;;;;;7.43;6.07;;;17.60;99.90;;;;;;5004991;28;20241;-63
2021/08/16 03:13:30;;;;;;;8.47;5.83;;;17.50;99.90;;;;;;5004167;28;20779;-62
2021/08/16 03:15:58;;;;;;;11.70;6.60;;;17.50;99.90;;;;;;5004359;28;20484;-62
2021/08/16 03:18:27;;;;;;;11.47;6.10;;;17.50;99.90;;;;;;5004209;28;20264;-62
2021/08/16 03:20:55;;;;;;;8.83;5.60;;;17.40;99.90;;;;;;5004036;28;20816;-62
2021/08/16 03:23:27;;;;;;;8.00;6.07;;;17.30;99.90;;;;;;5003790;28;20348;-62
2021/08/16 03:25:57;;;;;;;6.43;5.53;;;17.30;99.90;;;;;;5004127;28;20325;-62
2021/08/16 03:28:28;;;;;;;9.20;5.80;;;17.30;99.90;;;;;;5004043;28;20253;-62
2021/08/16 03:30:56;;;;;;;11.30;6.70;;;17.30;99.90;;;;;;5004288;28;20261;-63
2021/08/16 03:33:24;;;;;;;11.43;6.23;;;17.30;99.90;;;;;;5003568;28;20242;-62
2021/08/16 03:35:52;;;;;;;10.10;6.13;;;17.20;99.90;;;;;;5004192;28;20277;-62
2021/08/16 03:38:20;;;;;;;11.33;6.90;;;17.20;99.90;;;;;;5003413;28;21856;-63
2021/08/16 03:40:48;;;;;;;11.37;7.20;;;17.20;99.90;;;;;;5003853;28;20258;-63
2021/08/16 03:43:18;;;;;;;11.00;6.53;;;17.20;99.90;;;;;;5003434;28;20237;-63
2021/08/16 03:45:46;;;;;;;11.73;6.57;;;17.20;99.90;;;;;;5003703;28;20305;-62
2021/08/16 03:48:14;;;;;;;9.70;7.17;;;17.20;99.90;;;;;;5003459;28;20247;-63
2021/08/16 03:50:42;;;;;;;9.83;6.87;;;17.10;99.90;;;;;;5003287;28;20313;-62
2021/08/16 03:53:10;;;;;;;12.40;6.90;;;17.20;99.90;;;;;;4998643;28;20768;-63
2021/08/16 03:55:39;;;;;;;9.83;6.60;;;17.10;99.90;;;;;;5009838;28;20252;-63
2021/08/16 03:58:08;;;;;;;12.47;7.73;;;17.10;99.90;;;;;;5003602;28;20236;-62
2021/08/16 04:00:37;;;;;;;10.23;7.03;;;17.10;99.90;;;;;;5003639;28;20276;-62
2021/08/16 04:03:05;;;;;;;11.10;7.23;;;17.20;99.90;;;;;;5002782;28;20246;-63
2021/08/16 04:05:34;;;;;;;14.77;8.63;;;17.20;99.90;;;;;;5003611;28;20713;-62
2021/08/16 04:08:05;;;;;;;13.70;8.67;;;17.20;99.90;;;;;;4999821;28;20249;-63
2021/08/16 04:10:33;;;;;;;14.50;8.83;;;17.20;99.90;;;;;;5003662;28;20334;-62
2021/08/16 04:13:03;;;;;;;14.10;7.57;;;17.20;99.90;;;;;;5002652;28;20654;-62
2021/08/16 04:15:31;;;;;;;13.57;8.07;;;17.20;99.90;;;;;;5003071;28;20262;-63
2021/08/16 04:18:00;;;;;;;13.83;8.30;;;17.20;99.90;;;;;;5003299;28;20248;-62
2021/08/16 04:20:29;;;;;;;13.17;8.20;;;17.10;99.90;;;;;;5003206;28;20303;-62
2021/08/16 04:22:57;;;;;;;10.67;7.40;;;17.20;99.90;;;;;;5002466;28;20242;-63
2021/08/16 04:25:26;;;;;;;11.50;7.70;;;17.20;99.90;;;;;;5002956;28;20249;-63
2021/08/16 04:27:54;;;;;;;15.17;7.97;;;17.20;99.90;;;;;;5002873;28;20426;-62
2021/08/16 04:30:23;;;;;;;13.70;8.30;;;17.20;99.90;;;;;;5003018;28;20344;-62
2021/08/16 04:32:51;;;;;;;12.70;7.70;;;17.10;99.90;;;;;;5003080;28;21201;-62
2021/08/16 04:35:21;;;;;;;17.87;8.23;;;17.20;99.90;;;;;;5003372;28;20234;-61
2021/08/16 04:37:49;;;;;;;13.10;7.90;;;17.20;99.90;;;;;;5002842;28;20334;-62
2021/08/16 04:40:18;;;;;;;16.83;9.30;;;17.20;99.90;;;;;;4999518;28;20333;-62
2021/08/16 04:42:46;;;;;;;12.57;8.60;;;17.20;99.90;;;;;;5002482;28;20987;-62
2021/08/16 04:45:14;;;;;;;17.10;9.10;;;17.20;99.90;;;;;;5002828;28;20247;-62
2021/08/16 04:47:44;;;;;;;13.53;8.00;;;17.10;99.90;;;;;;5002807;28;20763;-62
2021/08/16 04:50:13;;;;;;;14.67;8.40;;;17.20;99.90;;;;;;5003199;28;20242;-62
2021/08/16 04:52:43;;;;;;;15.33;8.30;;;17.20;99.90;;;;;;5002870;28;20717;-63
2021/08/16 04:55:11;;;;;;;13.23;7.27;;;17.20;99.90;;;;;;5003006;28;20241;-62
2021/08/16 04:57:41;;;;;;;14.03;8.00;;;17.20;99.90;;;;;;5002399;28;20245;-62
2021/08/16 05:00:11;;;;;;;13.03;6.87;;;17.20;99.90;;;;;;5003181;28;20242;-63
2021/08/16 05:02:40;;;;;;;12.67;7.20;;;17.20;99.90;;;;;;5002419;28;20229;-62
2021/08/16 05:05:10;;;;;;;11.13;7.10;;;17.20;99.90;;;;;;5003208;28;20249;-62
2021/08/16 05:07:49;;;;;;;14.47;6.90;;;17.20;99.90;;;;;;5003662;28;20261;-65
2021/08/16 05:10:19;;;;;;;13.50;6.70;;;17.20;99.90;;;;;;5003385;28;20234;-64
2021/08/16 05:12:47;;;;;;;14.93;7.30;;;17.20;99.90;;;;;;5010080;28;20253;-64
2021/08/16 05:15:16;;;;;;;13.33;7.47;;;17.30;99.90;;;;;;5011462;28;20258;-65
2021/08/16 05:17:44;;;;;;;20.13;8.90;;;17.30;99.90;;;;;;5013287;28;20714;-64
2021/08/16 05:20:14;;;;;;;14.67;7.93;;;17.20;99.90;;;;;;5014213;28;20238;-64
2021/08/16 05:22:44;;;;;;;13.00;7.20;;;17.30;99.90;;;;;;5014893;28;20274;-64
2021/08/16 05:25:15;;;;;;;16.10;6.70;;;17.30;99.90;;;;;;5014450;28;20246;-64
2021/08/16 05:27:43;;;;;;;12.50;7.33;;;17.30;99.90;;;;;;5014976;28;20330;-64
2021/08/16 05:30:12;;;;;;;16.47;7.60;;;17.40;99.90;;;;;;5006209;28;20580;-64
2021/08/16 05:32:41;;;;;;;15.87;7.73;;;17.40;99.90;;;;;;5005829;28;20655;-64
2021/08/16 05:35:10;;;;;;;14.53;7.40;;;17.40;99.90;;;;;;5004689;28;20574;-64
2021/08/16 05:37:38;;;;;;;14.13;7.17;;;17.50;99.90;;;;;;5005223;28;20238;-64
2021/08/16 05:40:08;;;;;;;12.77;6.77;;;17.50;99.90;;;;;;5005483;28;20554;-65
2021/08/16 05:42:38;;;;;;;19.13;8.23;;;17.50;99.90;;;;;;5005161;28;20269;-65
2021/08/16 05:45:07;;;;;;;15.03;7.13;;;17.50;99.90;;;;;;5008045;28;20251;-65
2021/08/16 05:47:36;;;;;;;14.07;7.30;;;17.50;99.90;;;;;;5007492;28;20879;-65
2021/08/16 05:50:05;;;;;;;14.73;7.17;;;17.60;99.90;;;;;;5007174;28;20335;-65
2021/08/16 05:52:33;;;;;;;12.30;6.87;;;17.60;99.90;;;;;;5004661;28;20751;-65
2021/08/16 05:55:02;;;;;;;16.23;7.47;;;17.60;99.90;;;;;;5008511;28;20265;-65
2021/08/16 05:57:30;;;;;;;16.33;7.33;;;17.70;99.90;;;;;;5008382;28;20241;-65
2021/08/16 05:59:59;;;;;;;16.53;7.80;;;17.70;99.90;;;;;;5007955;28;20252;-64
2021/08/16 06:02:31;;;;;;;17.73;7.13;;;17.80;99.90;;;;;;5007485;28;20249;-65
2021/08/16 06:04:59;;;;;;;13.13;6.27;;;17.80;99.90;;;;;;5008009;28;20237;-65
2021/08/16 06:07:27;;;;;;;12.73;7.00;;;17.80;99.90;;;;;;5007348;28;20248;-65
2021/08/16 06:09:55;;;;;;;14.13;7.00;;;17.80;99.90;;;;;;5007479;28;20265;-65
2021/08/16 06:12:23;;;;;;;16.80;6.77;;;17.80;99.90;;;;;;5006983;28;20706;-65
2021/08/16 06:14:52;;;;;;;11.50;5.97;;;17.90;99.90;;;;;;5006754;28;20242;-65
2021/08/16 06:17:25;;;;;;;13.77;6.70;;;17.80;99.90;;;;;;5006816;28;20247;-65
2021/08/16 06:19:53;;;;;;;12.67;6.40;;;17.90;99.90;;;;;;5007089;28;20235;-65
2021/08/16 06:22:21;;;;;;;16.73;5.87;;;17.90;99.90;;;;;;5006584;28;21291;-64
2021/08/16 06:24:49;;;;;;;11.63;5.97;;;17.90;99.90;;;;;;5006146;28;20222;-64
2021/08/16 06:27:17;;;;;;;13.60;6.50;;;17.90;99.90;;;;;;5001375;28;20496;-64
2021/08/16 06:29:45;;;;;;;15.83;6.97;;;17.90;99.90;;;;;;5006173;28;20825;-65
2021/08/16 06:32:14;;;;;;;15.93;6.67;;;17.90;99.90;;;;;;5005523;28;20835;-65
2021/08/16 06:34:44;;;;;;;15.93;6.17;;;18.00;99.90;;;;;;5005963;28;20235;-64
2021/08/16 06:37:15;;;;;;;14.10;5.80;;;17.90;99.90;;;;;;5005984;28;20241;-65
2021/08/16 06:39:43;;;;;;;17.07;6.53;;;17.90;99.90;;;;;;5006434;28;20250;-65
2021/08/16 06:42:13;;;;;;;15.27;6.63;;;17.90;99.90;;;;;;5007354;28;20243;-64
2021/08/16 06:44:42;;;;;;;14.40;6.27;;;17.90;99.90;;;;;;5006273;28;20238;-65
2021/08/16 06:47:10;;;;;;;15.67;6.20;;;18.00;99.90;;;;;;5004456;28;20235;-65
2021/08/16 06:49:38;;;;;;;15.00;6.23;;;17.90;99.90;;;;;;5004385;28;20290;-64
2021/08/16 06:52:08;;;;;;;20.43;6.67;;;18.00;99.90;;;;;;5003291;28;20254;-65
2021/08/16 06:54:36;;;;;;;13.93;6.53;;;18.10;99.90;;;;;;5001550;28;20261;-65
2021/08/16 06:57:05;;;;;;;16.83;6.50;;;18.00;99.90;;;;;;5001823;28;20238;-64
2021/08/16 06:59:33;;;;;;;17.40;6.60;;;18.00;99.90;;;;;;5002986;28;20321;-65
2021/08/16 07:02:02;;;;;;;13.93;6.27;;;18.00;99.90;;;;;;5002487;28;20719;-65
2021/08/16 07:04:31;;;;;;;16.60;6.03;;;18.00;99.90;;;;;;5010156;28;20245;-65
2021/08/16 07:06:59;;;;;;;21.30;6.40;;;18.00;99.90;;;;;;5005228;28;20242;-66
2021/08/16 07:09:29;;;;;;;15.90;6.97;;;18.00;99.90;;;;;;5007547;28;20251;-65
2021/08/16 07:11:57;;;;;;;14.83;6.43;;;18.00;99.90;;;;;;5003422;28;20322;-66
2021/08/16 07:14:25;;;;;;;16.27;6.37;;;18.10;99.90;;;;;;5003195;28;20243;-66
2021/08/16 07:16:53;;;;;;;14.70;6.03;;;18.20;99.90;;;;;;5003470;28;20243;-65
2021/08/16 07:19:21;;;;;;;12.90;6.07;;;18.20;99.90;;;;;;5004947;28;20254;-65
2021/08/16 07:21:49;;;;;;;14.87;6.50;;;18.30;99.90;;;;;;5004082;28;20306;-66
2021/08/16 07:24:19;;;;;;;18.70;6.63;;;18.40;99.90;;;;;;4998067;28;20228;-66
2021/08/16 07:26:48;;;;;;;15.10;6.80;;;18.40;99.90;;;;;;5004053;28;20346;-66
2021/08/16 07:29:16;;;;;;;14.73;6.13;;;18.30;99.90;;;;;;5016317;28;20242;-65
2021/08/16 07:31:44;;;;;;;16.73;6.27;;;18.30;99.90;;;;;;5011368;28;20354;-65
2021/08/16 07:34:12;;;;;;;20.70;6.53;;;18.30;99.90;;;;;;5016627;28;20258;-65
2021/08/16 07:36:42;;;;;;;14.13;7.07;;;18.20;99.90;;;;;;5012064;28;20237;-65
2021/08/16 07:39:14;;;;;;;16.33;6.73;;;18.10;99.90;;;;;;5014606;28;20269;-65
2021/08/16 07:41:42;;;;;;;14.20;6.47;;;18.00;99.90;;;;;;5010138;28;20239;-65
2021/08/16 07:44:11;;;;;;;11.87;6.10;;;18.00;99.90;;;;;;5015716;28;20495;-65
2021/08/16 07:46:39;;;;;;;19.97;7.27;;;18.00;99.90;;;;;;5009705;28;20245;-65
2021/08/16 07:49:08;;;;;;;11.10;5.63;;;18.20;99.90;;;;;;5010304;28;20710;-65
2021/08/16 07:51:36;;;;;;;15.30;6.10;;;18.30;99.90;;;;;;5012956;28;20247;-65
2021/08/16 07:54:04;;;;;;;11.53;6.10;;;18.30;99.90;;;;;;5012725;28;20600;-65
2021/08/16 07:56:32;;;;;;;10.23;5.33;;;18.30;99.90;;;;;;5004007;28;20250;-65
2021/08/16 07:59:00;;;;;;;13.80;5.60;;;18.30;99.90;;;;;;5004004;28;20267;-65
2021/08/16 08:01:29;;;;;;;10.23;5.33;;;18.40;99.90;;;;;;5004041;28;20242;-65
2021/08/16 08:03:58;;;;;;;14.90;5.10;;;18.60;99.90;;;;;;5006229;28;20335;-66
2021/08/16 08:06:27;;;;;;;10.23;4.93;;;18.70;99.90;;;;;;5013761;28;20252;-65
2021/08/16 08:08:55;;;;;;;10.63;4.93;;;18.70;99.90;;;;;;5012418;28;20255;-65
2021/08/16 08:11:25;;;;;;;16.97;5.60;;;18.70;99.90;;;;;;5012983;28;20344;-65
2021/08/16 08:13:53;;;;;;;13.50;5.40;;;18.80;99.90;;;;;;5000646;28;20240;-65
2021/08/16 08:16:21;;;;;;;12.67;4.87;;;19.20;99.90;;;;;;4993969;28;20569;-66
2021/08/16 08:18:51;;;;;;;11.47;4.90;;;19.80;99.90;;;;;;5003753;28;20800;-66
2021/08/16 08:21:19;;;;;;;11.80;4.83;;;20.20;99.90;;;;;;5002303;28;20739;-66
2021/08/16 08:23:47;;;;;;;9.37;4.17;;;20.40;99.90;;;;;;5004821;28;20653;-66
2021/08/16 08:26:15;;;;;;;11.33;4.53;;;20.30;99.90;;;;;;5005568;28;20237;-66
2021/08/16 08:28:43;;;;;;;8.63;4.30;;;20.30;99.90;;;;;;5008419;28;20338;-66
2021/08/16 08:31:11;;;;;;;9.23;4.33;;;20.20;99.90;;;;;;5005525;28;20244;-65
2021/08/16 08:33:40;;;;;;;9.57;4.00;;;20.00;99.90;;;;;;5006252;28;20244;-66
2021/08/16 08:36:09;;;;;;;12.00;4.27;;;20.00;99.90;;;;;;5008688;28;20604;-66
2021/08/16 08:38:37;;;;;;;8.20;3.83;;;20.10;99.90;;;;;;5002791;28;20251;-66
2021/08/16 08:41:07;;;;;;;11.40;4.93;;;20.10;99.90;;;;;;5005934;28;20326;-65
2021/08/16 08:43:36;;;;;;;11.30;4.27;;;20.20;99.90;;;;;;5001909;28;20237;-66
2021/08/16 08:46:04;;;;;;;11.77;5.07;;;19.90;99.90;;;;;;5006161;28;20241;-65
2021/08/16 08:48:33;;;;;;;13.50;5.13;;;19.60;99.90;;;;;;5004563;28;20251;-65
2021/08/16 08:51:02;;;;;;;14.87;5.97;;;19.30;99.90;;;;;;5003513;28;20333;-66
2021/08/16 08:53:32;;;;;;;11.87;5.87;;;19.00;99.90;;;;;;5005780;28;20244;-65
2021/08/16 08:56:04;;;;;;;11.87;5.30;;;18.80;99.90;;;;;;5004874;28;20240;-65
2021/08/16 08:58:33;;;;;;;14.10;6.70;;;18.60;99.90;;;;;;5005808;28;20588;-65
2021/08/16 09:01:09;;;;;;;14.97;7.00;;;18.50;99.90;;;;;;1926862;28;10022854;-65
2021/08/16 09:03:48;;;;;;;11.33;6.47;;;18.40;99.90;;;;;;4302919;28;10001573;-65
2021/08/16 09:06:28;;;;;;;7.40;4.30;;;18.30;99.90;;;;;;5002543;28;20244;-65
2021/08/16 09:08:58;;;;;;;7.17;4.00;;;18.00;99.90;;;;;;5004838;28;20633;-65
2021/08/16 09:11:27;;;;;;;6.53;2.90;;;17.80;99.90;;;;;;5010897;28;20275;-65
2021/08/16 09:13:57;;;;;;;5.60;2.73;;;17.80;99.90;;;;;;5010734;28;20792;-65
2021/08/16 09:16:27;;;;;;;4.93;2.80;;;17.60;99.90;;;;;;5013564;28;20234;-65
2021/08/16 09:18:57;;;;;;;4.13;2.20;;;17.50;99.90;;;;;;5011133;28;20317;-65
2021/08/16 09:21:27;;;;;;;3.70;2.47;;;17.60;99.90;;;;;;5012891;28;20247;-65
2021/08/16 09:23:58;;;;;;;4.67;3.30;;;17.60;99.90;;;;;;5011390;28;20249;-65
2021/08/16 09:26:28;;;;;;;5.40;3.90;;;17.60;99.90;;;;;;5012191;28;20243;-65
2021/08/16 09:29:18;;;;;;;5.73;3.90;;;17.60;99.90;;;;;;5003563;28;20238;-65
2021/08/16 09:31:56;;;;;;;5.87;3.97;;;17.70;99.90;;;;;;5005738;28;20333;-65
2021/08/16 09:34:35;;;;;;;4.43;3.43;;;17.60;99.90;;;;;;5005654;28;20302;-65
2021/08/16 09:37:15;;;;;;;4.97;3.67;;;17.60;99.90;;;;;;4989854;28;20679;-65
2021/08/16 09:39:45;;;;;;;5.13;3.50;;;17.70;99.90;;;;;;4992270;28;20306;-65
2021/08/16 09:42:13;;;;;;;6.03;3.77;;;17.70;99.90;;;;;;5006394;28;20261;-65
2021/08/16 09:44:53;;;;;;;6.00;3.50;;;17.70;99.90;;;;;;5004460;28;20236;-65
2021/08/16 09:47:21;;;;;;;5.00;3.80;;;17.70;99.90;;;;;;5009426;28;20246;-64
2021/08/16 09:49:57;;;;;;;5.00;4.03;;;17.70;99.90;;;;;;5004160;28;20714;-65
2021/08/16 09:52:32;;;;;;;6.60;4.67;;;17.70;99.90;;;;;;5004427;28;20242;-65
2021/08/16 09:55:02;;;;;;;6.50;5.27;;;17.70;99.90;;;;;;5004927;28;20333;-65
2021/08/16 09:57:33;;;;;;;7.07;5.60;;;17.70;99.90;;;;;;5005795;28;20253;-65
2021/08/16 10:00:02;;;;;;;5.70;5.10;;;17.70;99.90;;;;;;4986350;28;20247;-65
2021/08/16 10:02:33;;;;;;;8.80;5.30;;;17.60;99.90;;;;;;4997988;28;20347;-64
2021/08/16 10:05:03;;;;;;;6.17;4.93;;;17.60;99.90;;;;;;5012040;28;20261;-64
2021/08/16 10:07:41;;;;;;;6.83;4.30;;;17.60;99.90;;;;;;4995703;28;20245;-64
2021/08/16 10:10:12;;;;;;;6.67;4.00;;;17.50;99.90;;;;;;4992918;28;20612;-65
2021/08/16 10:12:42;;;;;;;5.73;3.90;;;17.50;99.90;;;;;;4998315;28;20249;-65
2021/08/16 10:15:12;;;;;;;4.30;3.47;;;17.50;99.90;;;;;;5007210;28;20737;-65
2021/08/16 10:17:43;;;;;;;4.30;3.60;;;17.50;99.90;;;;;;5010589;28;20773;-65
2021/08/16 10:20:13;;;;;;;3.87;3.40;;;17.50;99.90;;;;;;5010685;28;20828;-64
2021/08/16 10:22:42;;;;;;;5.13;3.37;;;17.50;99.90;;;;;;5007563;28;20237;-64
2021/08/16 10:25:13;;;;;;;3.67;2.93;;;17.40;99.90;;;;;;5015302;28;20329;-65
2021/08/16 10:27:42;;;;;;;5.80;3.43;;;17.50;99.90;;;;;;5006053;28;20328;-65
2021/08/16 10:30:13;;;;;;;4.90;3.20;;;17.50;99.90;;;;;;5006837;28;20238;-65
2021/08/16 10:32:43;;;;;;;5.37;3.43;;;17.50;99.90;;;;;;5003859;28;20275;-65
2021/08/16 10:35:18;;;;;;;4.90;3.47;;;17.40;99.90;;;;;;5004178;28;20235;-65
2021/08/16 10:37:47;;;;;;;4.37;3.07;;;17.40;99.90;;;;;;5007432;28;20677;-65
2021/08/16 10:40:22;;;;;;;4.43;3.60;;;17.40;99.90;;;;;;5003641;28;20265;-65
2021/08/16 10:42:53;;;;;;;4.30;3.57;;;17.40;99.90;;;;;;5007012;28;20769;-65
2021/08/16 10:45:30;;;;;;;4.63;3.33;;;17.40;99.90;;;;;;5003529;28;20238;-65
2021/08/16 10:48:04;;;;;;;4.43;3.30;;;17.30;99.90;;;;;;5005602;28;20246;-65
2021/08/16 10:50:33;;;;;;;4.57;3.33;;;17.30;99.90;;;;;;5008173;28;20243;-65
2021/08/16 10:53:04;;;;;;;4.40;3.20;;;17.30;99.90;;;;;;5004147;28;20251;-65
2021/08/16 10:55:36;;;;;;;4.93;2.80;;;17.30;99.90;;;;;;5005677;28;20623;-67
2021/08/16 10:58:07;;;;;;;5.37;2.80;;;17.30;99.90;;;;;;5005510;28;20242;-64
2021/08/16 11:00:36;;;;;;;4.23;2.50;;;17.30;99.90;;;;;;5007517;28;20316;-65
2021/08/16 11:03:07;;;;;;;2.83;2.13;;;17.40;99.90;;;;;;5005602;28;20329;-64
2021/08/16 11:05:36;;;;;;;6.73;2.20;;;17.40;99.90;;;;;;5005313;28;20247;-65
2021/08/16 11:08:05;;;;;;;3.83;2.27;;;17.50;99.90;;;;;;5013617;28;20738;-64
2021/08/16 11:10:44;;;;;;;3.27;2.57;;;17.50;99.90;;;;;;5004856;28;20271;-65
2021/08/16 11:13:15;;;;;;;5.23;2.10;;;17.60;99.90;;;;;;5002794;28;20257;-65
2021/08/16 11:15:45;;;;;;;4.53;2.40;;;17.60;99.90;;;;;;5003380;28;20235;-65
2021/08/16 11:18:15;;;;;;;5.60;2.10;;;17.60;99.90;;;;;;5002803;28;20799;-65
2021/08/16 11:20:44;;;;;;;6.77;2.50;;;17.50;99.90;;;;;;5002430;28;20282;-65
2021/08/16 11:23:12;;;;;;;3.80;1.93;;;17.50;99.90;;;;;;5002572;28;20667;-65
2021/08/16 11:25:52;;;;;;;5.03;2.10;;;17.40;99.90;;;;;;5003462;28;20317;-65
2021/08/16 11:28:23;;;;;;;5.07;2.67;;;17.50;99.90;;;;;;5003471;28;20793;-64
2021/08/16 11:30:59;;;;;;;3.87;2.00;;;17.40;99.90;;;;;;5013971;28;20251;-65
2021/08/16 11:33:28;;;;;;;4.07;2.23;;;17.40;99.90;;;;;;4999243;28;20250;-65
2021/08/16 11:36:05;;;;;;;4.77;2.43;;;17.30;99.90;;;;;;5001995;28;20263;-65
2021/08/16 11:38:33;;;;;;;4.97;2.67;;;17.30;99.90;;;;;;5007387;28;20524;-65
2021/08/16 11:41:07;;;;;;;5.37;2.87;;;17.20;99.90;;;;;;5009878;28;20695;-65
2021/08/16 11:43:55;;;;;;;4.73;2.60;;;17.10;99.90;;;;;;5004452;28;20241;-65
2021/08/16 11:46:24;;;;;;;7.77;2.93;;;17.10;99.90;;;;;;5004463;28;20757;-65
2021/08/16 11:48:53;;;;;;;6.37;2.57;;;16.90;99.90;;;;;;5004155;28;20245;-65
2021/08/16 11:51:21;;;;;;;5.93;3.17;;;16.80;99.90;;;;;;5009986;28;20330;-65
2021/08/16 11:53:50;;;;;;;7.87;3.30;;;16.90;99.90;;;;;;5011135;28;20251;-65
2021/08/16 11:56:20;;;;;;;5.43;2.80;;;16.80;99.90;;;;;;5012453;28;20588;-65
2021/08/16 11:58:48;;;;;;;6.63;2.90;;;16.90;99.90;;;;;;5009436;28;20233;-65
2021/08/16 12:01:16;;;;;;;6.87;3.23;;;16.80;99.90;;;;;;5020858;28;20767;-65
2021/08/16 12:03:45;;;;;;;7.57;2.80;;;16.90;99.90;;;;;;5005029;28;20336;-64
2021/08/16 12:06:16;;;;;;;5.13;2.67;;;16.90;99.90;;;;;;5000930;28;20237;-64
2021/08/16 12:08:44;;;;;;;5.60;3.03;;;16.80;99.90;;;;;;4998133;28;20270;-64
2021/08/16 12:11:13;;;;;;;5.17;2.93;;;16.90;99.90;;;;;;5001201;28;20300;-64
2021/08/16 12:13:43;;;;;;;4.13;2.73;;;16.80;99.90;;;;;;5002535;28;20243;-64
2021/08/16 12:16:16;;;;;;;5.67;2.90;;;16.80;99.90;;;;;;5002335;28;20249;-64
2021/08/16 12:18:44;;;;;;;6.07;2.90;;;16.70;99.90;;;;;;5005357;28;20237;-63
2021/08/16 12:21:21;;;;;;;4.60;2.90;;;16.70;99.90;;;;;;5003201;28;20233;-64
2021/08/16 12:23:54;;;;;;;4.77;2.90;;;16.80;99.90;;;;;;5002579;28;20819;-64
2021/08/16 12:26:34;;;;;;;6.73;3.23;;;16.80;99.90;;;;;;5006455;28;20248;-64
2021/08/16 12:29:15;;;;;;;7.63;3.17;;;16.80;99.90;;;;;;5004784;28;20343;-64
2021/08/16 12:31:44;;;;;;;6.97;3.17;;;16.70;99.90;;;;;;5009587;28;20334;-65
2021/08/16 12:34:13;;;;;;;6.17;3.53;;;16.70;99.90;;;;;;5016681;28;20241;-65
2021/08/16 12:36:51;;;;;;;7.40;2.60;;;16.50;99.90;;;;;;5006978;28;20241;-65
2021/08/16 12:39:19;;;;;;;6.30;2.60;;;16.30;99.90;;;;;;5003936;28;20237;-64
2021/08/16 12:41:53;;;;;;;7.33;2.53;;;16.30;99.90;;;;;;5008214;28;20233;-65
2021/08/16 12:44:25;;;;;;;7.07;2.83;;;16.30;99.90;;;;;;5006278;28;20241;-65
2021/08/16 12:46:59;;;;;;;8.17;2.70;;;16.30;99.90;;;;;;5006022;28;20666;-65
2021/08/16 12:49:29;;;;;;;6.40;2.30;;;16.40;99.90;;;;;;5006484;28;20272;-65
2021/08/16 12:51:57;;;;;;;7.40;2.20;;;16.50;99.90;;;;;;5006202;28;20244;-65
2021/08/16 12:54:25;;;;;;;7.27;2.50;;;16.40;99.90;;;;;;5006125;28;20265;-65